sensor_id;sensor_type;location;lat;lon;timestamp;P1;durP1;ratioP1;P2;durP2;ratioP2
43628;SDS011;56545;48.224;11.678;2023-02-04T00:00:57;4.38;;;1.02;;
43628;SDS011;56545;48.224;11.678;2023-02-04T00:03:24;3.78;;;1.67;;
43628;SDS011;56545;48.224;11.678;2023-02-04T00:05:50;1.70;;;0.80;;
43628;SDS011;56545;48.224;11.678;2023-02-04T00:08:16;2.40;;;0.80;;
43628;SDS011;56545;48.224;11.678;2023-02-04T00:10:42;1.50;;;0.90;;
43628;SDS011;56545;48.224;11.678;2023-02-04T00:13:07;1.50;;;0.90;;
43628;SDS011;56545;48.224;11.678;2023-02-04T00:15:33;2.17;;;1.20;;
43628;SDS011;56545;48.224;11.678;2023-02-04T00:17:59;1.35;;;0.80;;
43628;SDS011;56545;48.224;11.678;2023-02-04T00:20:25;1.85;;;0.90;;
43628;SDS011;56545;48.224;11.678;2023-02-04T00:22:51;1.83;;;0.77;;
43628;SDS011;56545;48.224;11.678;2023-02-04T00:25:17;2.38;;;1.13;;
43628;SDS011;56545;48.224;11.678;2023-02-04T00:27:43;3.00;;;0.93;;
43628;SDS011;56545;48.224;11.678;2023-02-04T00:30:09;3.75;;;1.50;;
43628;SDS011;56545;48.224;11.678;2023-02-04T00:32:35;3.92;;;1.10;;
43628;SDS011;56545;48.224;11.678;2023-02-04T00:35:01;3.15;;;1.27;;
43628;SDS011;56545;48.224;11.678;2023-02-04T00:37:28;4.40;;;1.23;;
43628;SDS011;56545;48.224;11.678;2023-02-04T00:39:55;4.25;;;1.60;;
43628;SDS011;56545;48.224;11.678;2023-02-04T00:42:21;5.10;;;1.70;;
43628;SDS011;56545;48.224;11.678;2023-02-04T00:44:47;2.50;;;1.30;;
43628;SDS011;56545;48.224;11.678;2023-02-04T00:47:13;2.78;;;1.42;;
43628;SDS011;56545;48.224;11.678;2023-02-04T00:49:39;4.07;;;1.63;;
43628;SDS011;56545;48.224;11.678;2023-02-04T00:52:05;3.78;;;1.63;;
43628;SDS011;56545;48.224;11.678;2023-02-04T00:54:31;2.13;;;1.00;;
43628;SDS011;56545;48.224;11.678;2023-02-04T00:56:57;1.85;;;1.00;;
43628;SDS011;56545;48.224;11.678;2023-02-04T00:59:23;1.85;;;1.10;;
43628;SDS011;56545;48.224;11.678;2023-02-04T01:01:49;2.63;;;1.20;;
43628;SDS011;56545;48.224;11.678;2023-02-04T01:04:15;2.35;;;1.10;;
43628;SDS011;56545;48.224;11.678;2023-02-04T01:06:41;4.55;;;1.60;;
43628;SDS011;56545;48.224;11.678;2023-02-04T01:09:07;3.60;;;1.60;;
43628;SDS011;56545;48.224;11.678;2023-02-04T01:11:34;3.53;;;1.50;;
43628;SDS011;56545;48.224;11.678;2023-02-04T01:14:00;3.15;;;1.58;;
43628;SDS011;56545;48.224;11.678;2023-02-04T01:16:26;3.85;;;1.80;;
43628;SDS011;56545;48.224;11.678;2023-02-04T01:18:52;5.97;;;1.77;;
43628;SDS011;56545;48.224;11.678;2023-02-04T01:21:20;4.50;;;1.17;;
43628;SDS011;56545;48.224;11.678;2023-02-04T01:23:46;2.38;;;1.27;;
43628;SDS011;56545;48.224;11.678;2023-02-04T01:26:14;3.05;;;1.20;;
43628;SDS011;56545;48.224;11.678;2023-02-04T01:28:40;3.33;;;1.20;;
43628;SDS011;56545;48.224;11.678;2023-02-04T01:31:06;4.05;;;1.10;;
43628;SDS011;56545;48.224;11.678;2023-02-04T01:33:32;2.33;;;1.10;;
43628;SDS011;56545;48.224;11.678;2023-02-04T01:35:58;3.47;;;1.20;;
43628;SDS011;56545;48.224;11.678;2023-02-04T01:38:24;3.38;;;1.45;;
43628;SDS011;56545;48.224;11.678;2023-02-04T01:40:50;3.05;;;1.00;;
43628;SDS011;56545;48.224;11.678;2023-02-04T01:43:16;3.70;;;1.20;;
43628;SDS011;56545;48.224;11.678;2023-02-04T01:45:44;4.85;;;1.30;;
43628;SDS011;56545;48.224;11.678;2023-02-04T01:48:10;2.63;;;1.30;;
43628;SDS011;56545;48.224;11.678;2023-02-04T01:50:38;5.68;;;1.33;;
43628;SDS011;56545;48.224;11.678;2023-02-04T01:53:04;4.10;;;1.38;;
43628;SDS011;56545;48.224;11.678;2023-02-04T01:55:30;5.55;;;1.40;;
43628;SDS011;56545;48.224;11.678;2023-02-04T01:57:57;7.55;;;1.67;;
43628;SDS011;56545;48.224;11.678;2023-02-04T02:00:28;8.45;;;1.80;;
43628;SDS011;56545;48.224;11.678;2023-02-04T02:02:56;6.25;;;1.50;;
43628;SDS011;56545;48.224;11.678;2023-02-04T02:05:27;6.75;;;1.70;;
43628;SDS011;56545;48.224;11.678;2023-02-04T02:08:02;7.65;;;1.75;;
43628;SDS011;56545;48.224;11.678;2023-02-04T02:10:29;8.95;;;1.90;;
43628;SDS011;56545;48.224;11.678;2023-02-04T02:12:55;7.80;;;1.92;;
43628;SDS011;56545;48.224;11.678;2023-02-04T02:15:22;8.57;;;2.10;;
43628;SDS011;56545;48.224;11.678;2023-02-04T02:17:49;8.07;;;2.20;;
43628;SDS011;56545;48.224;11.678;2023-02-04T02:20:16;9.75;;;1.77;;
43628;SDS011;56545;48.224;11.678;2023-02-04T02:22:47;11.55;;;2.30;;
43628;SDS011;56545;48.224;11.678;2023-02-04T02:25:28;12.55;;;2.40;;
43628;SDS011;56545;48.224;11.678;2023-02-04T02:27:54;13.88;;;2.15;;
43628;SDS011;56545;48.224;11.678;2023-02-04T02:30:21;8.30;;;2.13;;
43628;SDS011;56545;48.224;11.678;2023-02-04T02:32:47;7.88;;;2.22;;
43628;SDS011;56545;48.224;11.678;2023-02-04T02:35:15;10.70;;;2.35;;
43628;SDS011;56545;48.224;11.678;2023-02-04T02:37:41;9.85;;;2.33;;
43628;SDS011;56545;48.224;11.678;2023-02-04T02:40:08;11.23;;;2.67;;
43628;SDS011;56545;48.224;11.678;2023-02-04T02:42:34;13.07;;;2.50;;
43628;SDS011;56545;48.224;11.678;2023-02-04T02:45:02;11.68;;;2.35;;
43628;SDS011;56545;48.224;11.678;2023-02-04T02:47:34;11.65;;;2.40;;
43628;SDS011;56545;48.224;11.678;2023-02-04T02:50:00;8.80;;;2.10;;
43628;SDS011;56545;48.224;11.678;2023-02-04T02:52:26;9.65;;;2.10;;
43628;SDS011;56545;48.224;11.678;2023-02-04T02:54:52;9.35;;;2.28;;
43628;SDS011;56545;48.224;11.678;2023-02-04T02:57:19;13.77;;;2.55;;
43628;SDS011;56545;48.224;11.678;2023-02-04T02:59:46;15.32;;;2.50;;
43628;SDS011;56545;48.224;11.678;2023-02-04T03:02:13;14.60;;;2.65;;
43628;SDS011;56545;48.224;11.678;2023-02-04T03:07:14;14.98;;;2.83;;
43628;SDS011;56545;48.224;11.678;2023-02-04T03:09:42;17.92;;;3.05;;
43628;SDS011;56545;48.224;11.678;2023-02-04T03:12:08;14.43;;;3.55;;
43628;SDS011;56545;48.224;11.678;2023-02-04T03:14:34;17.80;;;3.53;;
43628;SDS011;56545;48.224;11.678;2023-02-04T03:17:02;12.70;;;2.92;;
43628;SDS011;56545;48.224;11.678;2023-02-04T03:19:30;14.50;;;2.40;;
43628;SDS011;56545;48.224;11.678;2023-02-04T03:21:57;10.07;;;2.00;;
43628;SDS011;56545;48.224;11.678;2023-02-04T03:24:25;10.10;;;1.92;;
43628;SDS011;56545;48.224;11.678;2023-02-04T03:26:51;8.93;;;1.98;;
43628;SDS011;56545;48.224;11.678;2023-02-04T03:29:17;10.70;;;2.05;;
43628;SDS011;56545;48.224;11.678;2023-02-04T03:31:43;7.63;;;1.60;;
43628;SDS011;56545;48.224;11.678;2023-02-04T03:34:09;11.07;;;2.10;;
43628;SDS011;56545;48.224;11.678;2023-02-04T03:36:35;18.83;;;3.75;;
43628;SDS011;56545;48.224;11.678;2023-02-04T03:39:01;11.25;;;2.72;;
43628;SDS011;56545;48.224;11.678;2023-02-04T03:41:28;11.52;;;2.72;;
43628;SDS011;56545;48.224;11.678;2023-02-04T03:43:54;11.50;;;2.60;;
43628;SDS011;56545;48.224;11.678;2023-02-04T03:46:20;13.13;;;2.78;;
43628;SDS011;56545;48.224;11.678;2023-02-04T03:48:47;10.90;;;2.30;;
43628;SDS011;56545;48.224;11.678;2023-02-04T03:51:14;12.82;;;2.40;;
43628;SDS011;56545;48.224;11.678;2023-02-04T03:53:40;8.75;;;1.83;;
43628;SDS011;56545;48.224;11.678;2023-02-04T03:56:05;8.65;;;1.75;;
43628;SDS011;56545;48.224;11.678;2023-02-04T03:58:31;10.45;;;2.10;;
43628;SDS011;56545;48.224;11.678;2023-02-04T04:00:57;8.88;;;1.60;;
43628;SDS011;56545;48.224;11.678;2023-02-04T04:03:23;11.73;;;1.70;;
43628;SDS011;56545;48.224;11.678;2023-02-04T04:05:49;10.45;;;1.92;;
43628;SDS011;56545;48.224;11.678;2023-02-04T04:08:15;10.02;;;1.83;;
43628;SDS011;56545;48.224;11.678;2023-02-04T04:10:41;10.48;;;2.08;;
43628;SDS011;56545;48.224;11.678;2023-02-04T04:13:07;11.45;;;2.38;;
43628;SDS011;56545;48.224;11.678;2023-02-04T04:15:32;12.65;;;2.38;;
43628;SDS011;56545;48.224;11.678;2023-02-04T04:17:58;10.32;;;1.80;;
43628;SDS011;56545;48.224;11.678;2023-02-04T04:20:24;9.95;;;2.22;;
43628;SDS011;56545;48.224;11.678;2023-02-04T04:22:52;11.95;;;1.88;;
43628;SDS011;56545;48.224;11.678;2023-02-04T04:25:17;13.02;;;2.30;;
43628;SDS011;56545;48.224;11.678;2023-02-04T04:27:43;12.32;;;2.28;;
43628;SDS011;56545;48.224;11.678;2023-02-04T04:30:10;12.60;;;2.20;;
43628;SDS011;56545;48.224;11.678;2023-02-04T04:32:36;8.90;;;2.03;;
43628;SDS011;56545;48.224;11.678;2023-02-04T04:35:02;10.43;;;2.25;;
43628;SDS011;56545;48.224;11.678;2023-02-04T04:37:28;14.40;;;2.65;;
43628;SDS011;56545;48.224;11.678;2023-02-04T04:39:54;10.50;;;2.13;;
43628;SDS011;56545;48.224;11.678;2023-02-04T04:42:20;13.18;;;2.55;;
43628;SDS011;56545;48.224;11.678;2023-02-04T04:44:46;10.43;;;2.50;;
43628;SDS011;56545;48.224;11.678;2023-02-04T04:47:11;11.48;;;2.15;;
43628;SDS011;56545;48.224;11.678;2023-02-04T04:49:37;11.95;;;1.95;;
43628;SDS011;56545;48.224;11.678;2023-02-04T04:52:03;11.15;;;2.03;;
43628;SDS011;56545;48.224;11.678;2023-02-04T04:54:29;12.07;;;2.30;;
43628;SDS011;56545;48.224;11.678;2023-02-04T04:56:55;10.57;;;2.13;;
43628;SDS011;56545;48.224;11.678;2023-02-04T04:59:21;13.90;;;2.50;;
43628;SDS011;56545;48.224;11.678;2023-02-04T05:01:47;9.68;;;2.45;;
43628;SDS011;56545;48.224;11.678;2023-02-04T05:04:13;13.30;;;2.28;;
43628;SDS011;56545;48.224;11.678;2023-02-04T05:06:39;11.43;;;2.55;;
43628;SDS011;56545;48.224;11.678;2023-02-04T05:09:04;11.82;;;2.55;;
43628;SDS011;56545;48.224;11.678;2023-02-04T05:11:30;12.55;;;2.40;;
43628;SDS011;56545;48.224;11.678;2023-02-04T05:13:56;13.23;;;2.42;;
43628;SDS011;56545;48.224;11.678;2023-02-04T05:16:22;14.60;;;2.70;;
43628;SDS011;56545;48.224;11.678;2023-02-04T05:18:48;12.52;;;2.38;;
43628;SDS011;56545;48.224;11.678;2023-02-04T05:21:14;11.18;;;2.35;;
43628;SDS011;56545;48.224;11.678;2023-02-04T05:23:40;12.50;;;2.30;;
43628;SDS011;56545;48.224;11.678;2023-02-04T05:26:06;13.48;;;2.28;;
43628;SDS011;56545;48.224;11.678;2023-02-04T05:28:32;14.15;;;2.42;;
43628;SDS011;56545;48.224;11.678;2023-02-04T05:30:58;10.70;;;2.33;;
43628;SDS011;56545;48.224;11.678;2023-02-04T05:33:23;15.25;;;2.65;;
43628;SDS011;56545;48.224;11.678;2023-02-04T05:35:50;12.80;;;2.25;;
43628;SDS011;56545;48.224;11.678;2023-02-04T05:38:16;12.68;;;2.45;;
43628;SDS011;56545;48.224;11.678;2023-02-04T05:40:41;13.50;;;2.28;;
43628;SDS011;56545;48.224;11.678;2023-02-04T05:43:07;11.68;;;2.35;;
43628;SDS011;56545;48.224;11.678;2023-02-04T05:45:33;19.27;;;2.53;;
43628;SDS011;56545;48.224;11.678;2023-02-04T05:47:59;12.73;;;2.00;;
43628;SDS011;56545;48.224;11.678;2023-02-04T05:50:25;13.32;;;2.17;;
43628;SDS011;56545;48.224;11.678;2023-02-04T05:52:51;10.77;;;2.00;;
43628;SDS011;56545;48.224;11.678;2023-02-04T05:55:17;12.93;;;2.17;;
43628;SDS011;56545;48.224;11.678;2023-02-04T05:57:43;8.40;;;2.22;;
43628;SDS011;56545;48.224;11.678;2023-02-04T06:00:10;12.57;;;2.15;;
43628;SDS011;56545;48.224;11.678;2023-02-04T06:02:36;10.55;;;2.00;;
43628;SDS011;56545;48.224;11.678;2023-02-04T06:05:02;11.95;;;1.83;;
43628;SDS011;56545;48.224;11.678;2023-02-04T06:07:28;12.73;;;2.28;;
43628;SDS011;56545;48.224;11.678;2023-02-04T06:09:54;13.45;;;2.15;;
43628;SDS011;56545;48.224;11.678;2023-02-04T06:12:20;10.98;;;2.00;;
43628;SDS011;56545;48.224;11.678;2023-02-04T06:14:46;11.85;;;2.40;;
43628;SDS011;56545;48.224;11.678;2023-02-04T06:17:12;11.35;;;2.45;;
43628;SDS011;56545;48.224;11.678;2023-02-04T06:19:38;15.18;;;3.50;;
43628;SDS011;56545;48.224;11.678;2023-02-04T06:22:04;12.25;;;2.38;;
43628;SDS011;56545;48.224;11.678;2023-02-04T06:24:29;14.88;;;2.42;;
43628;SDS011;56545;48.224;11.678;2023-02-04T06:26:55;12.80;;;2.22;;
43628;SDS011;56545;48.224;11.678;2023-02-04T06:29:21;15.10;;;2.70;;
43628;SDS011;56545;48.224;11.678;2023-02-04T06:31:47;14.18;;;2.50;;
43628;SDS011;56545;48.224;11.678;2023-02-04T06:34:13;13.98;;;2.20;;
43628;SDS011;56545;48.224;11.678;2023-02-04T06:36:39;11.07;;;2.50;;
43628;SDS011;56545;48.224;11.678;2023-02-04T06:39:05;10.20;;;2.17;;
43628;SDS011;56545;48.224;11.678;2023-02-04T06:41:31;14.73;;;2.50;;
43628;SDS011;56545;48.224;11.678;2023-02-04T06:43:57;12.90;;;2.28;;
43628;SDS011;56545;48.224;11.678;2023-02-04T06:46:23;13.68;;;2.63;;
43628;SDS011;56545;48.224;11.678;2023-02-04T06:48:49;12.07;;;2.40;;
43628;SDS011;56545;48.224;11.678;2023-02-04T06:51:15;14.38;;;2.40;;
43628;SDS011;56545;48.224;11.678;2023-02-04T06:53:41;13.30;;;2.35;;
43628;SDS011;56545;48.224;11.678;2023-02-04T06:56:08;11.68;;;2.53;;
43628;SDS011;56545;48.224;11.678;2023-02-04T06:58:35;11.63;;;2.67;;
43628;SDS011;56545;48.224;11.678;2023-02-04T07:01:01;11.35;;;2.38;;
43628;SDS011;56545;48.224;11.678;2023-02-04T07:03:27;12.05;;;2.58;;
43628;SDS011;56545;48.224;11.678;2023-02-04T07:05:53;12.55;;;2.35;;
43628;SDS011;56545;48.224;11.678;2023-02-04T07:08:19;13.00;;;2.20;;
43628;SDS011;56545;48.224;11.678;2023-02-04T07:10:46;13.95;;;2.40;;
43628;SDS011;56545;48.224;11.678;2023-02-04T07:13:12;13.10;;;2.15;;
43628;SDS011;56545;48.224;11.678;2023-02-04T07:15:38;14.35;;;2.60;;
43628;SDS011;56545;48.224;11.678;2023-02-04T07:18:04;9.48;;;2.17;;
43628;SDS011;56545;48.224;11.678;2023-02-04T07:20:30;14.15;;;2.45;;
43628;SDS011;56545;48.224;11.678;2023-02-04T07:22:56;13.18;;;2.65;;
43628;SDS011;56545;48.224;11.678;2023-02-04T07:25:21;9.93;;;2.47;;
43628;SDS011;56545;48.224;11.678;2023-02-04T07:27:47;11.10;;;2.72;;
43628;SDS011;56545;48.224;11.678;2023-02-04T07:30:13;11.88;;;2.47;;
43628;SDS011;56545;48.224;11.678;2023-02-04T07:32:39;11.13;;;2.88;;
43628;SDS011;56545;48.224;11.678;2023-02-04T07:35:05;14.13;;;2.85;;
43628;SDS011;56545;48.224;11.678;2023-02-04T07:37:32;14.05;;;2.35;;
43628;SDS011;56545;48.224;11.678;2023-02-04T07:39:57;13.10;;;3.17;;
43628;SDS011;56545;48.224;11.678;2023-02-04T07:42:23;14.23;;;2.75;;
43628;SDS011;56545;48.224;11.678;2023-02-04T07:44:49;10.10;;;2.80;;
43628;SDS011;56545;48.224;11.678;2023-02-04T07:47:15;16.40;;;3.50;;
43628;SDS011;56545;48.224;11.678;2023-02-04T07:49:41;10.70;;;2.85;;
43628;SDS011;56545;48.224;11.678;2023-02-04T07:52:07;8.13;;;2.22;;
43628;SDS011;56545;48.224;11.678;2023-02-04T07:54:33;10.35;;;2.10;;
43628;SDS011;56545;48.224;11.678;2023-02-04T07:56:59;12.60;;;2.63;;
43628;SDS011;56545;48.224;11.678;2023-02-04T07:59:25;10.55;;;2.20;;
43628;SDS011;56545;48.224;11.678;2023-02-04T08:01:51;13.95;;;3.17;;
43628;SDS011;56545;48.224;11.678;2023-02-04T08:04:17;13.63;;;2.80;;
43628;SDS011;56545;48.224;11.678;2023-02-04T08:06:43;11.13;;;2.13;;
43628;SDS011;56545;48.224;11.678;2023-02-04T08:09:08;15.02;;;2.15;;
43628;SDS011;56545;48.224;11.678;2023-02-04T08:11:34;10.32;;;2.50;;
43628;SDS011;56545;48.224;11.678;2023-02-04T08:14:00;12.00;;;3.10;;
43628;SDS011;56545;48.224;11.678;2023-02-04T08:16:26;10.73;;;2.45;;
43628;SDS011;56545;48.224;11.678;2023-02-04T08:18:52;12.15;;;2.90;;
43628;SDS011;56545;48.224;11.678;2023-02-04T08:21:18;11.30;;;3.38;;
43628;SDS011;56545;48.224;11.678;2023-02-04T08:23:44;13.63;;;3.10;;
43628;SDS011;56545;48.224;11.678;2023-02-04T08:26:10;12.13;;;2.83;;
43628;SDS011;56545;48.224;11.678;2023-02-04T08:28:36;14.50;;;2.90;;
43628;SDS011;56545;48.224;11.678;2023-02-04T08:31:06;13.57;;;2.78;;
43628;SDS011;56545;48.224;11.678;2023-02-04T08:33:35;15.20;;;2.20;;
43628;SDS011;56545;48.224;11.678;2023-02-04T08:36:05;10.77;;;2.03;;
43628;SDS011;56545;48.224;11.678;2023-02-04T08:38:31;10.52;;;2.67;;
43628;SDS011;56545;48.224;11.678;2023-02-04T08:40:57;15.90;;;2.67;;
43628;SDS011;56545;48.224;11.678;2023-02-04T08:43:24;10.20;;;2.55;;
43628;SDS011;56545;48.224;11.678;2023-02-04T08:45:50;10.82;;;2.83;;
43628;SDS011;56545;48.224;11.678;2023-02-04T08:48:16;12.00;;;2.50;;
43628;SDS011;56545;48.224;11.678;2023-02-04T08:50:42;14.40;;;3.03;;
43628;SDS011;56545;48.224;11.678;2023-02-04T08:53:08;11.77;;;2.67;;
43628;SDS011;56545;48.224;11.678;2023-02-04T08:55:34;12.98;;;2.28;;
43628;SDS011;56545;48.224;11.678;2023-02-04T08:57:59;11.00;;;2.00;;
43628;SDS011;56545;48.224;11.678;2023-02-04T09:00:26;15.73;;;5.35;;
43628;SDS011;56545;48.224;11.678;2023-02-04T09:02:53;9.32;;;2.45;;
43628;SDS011;56545;48.224;11.678;2023-02-04T09:05:19;11.77;;;2.05;;
43628;SDS011;56545;48.224;11.678;2023-02-04T09:07:45;9.68;;;2.40;;
43628;SDS011;56545;48.224;11.678;2023-02-04T09:10:11;9.50;;;2.47;;
43628;SDS011;56545;48.224;11.678;2023-02-04T09:12:37;10.20;;;2.20;;
43628;SDS011;56545;48.224;11.678;2023-02-04T09:15:03;13.25;;;2.17;;
43628;SDS011;56545;48.224;11.678;2023-02-04T09:17:29;12.10;;;2.67;;
43628;SDS011;56545;48.224;11.678;2023-02-04T09:19:55;10.98;;;2.50;;
43628;SDS011;56545;48.224;11.678;2023-02-04T09:22:21;12.10;;;2.75;;
43628;SDS011;56545;48.224;11.678;2023-02-04T09:24:47;11.30;;;2.58;;
43628;SDS011;56545;48.224;11.678;2023-02-04T09:27:13;10.13;;;2.17;;
43628;SDS011;56545;48.224;11.678;2023-02-04T09:29:39;14.77;;;4.80;;
43628;SDS011;56545;48.224;11.678;2023-02-04T09:32:04;10.23;;;2.80;;
43628;SDS011;56545;48.224;11.678;2023-02-04T09:34:31;12.07;;;2.35;;
43628;SDS011;56545;48.224;11.678;2023-02-04T09:36:56;7.88;;;1.92;;
43628;SDS011;56545;48.224;11.678;2023-02-04T09:39:22;9.95;;;1.75;;
43628;SDS011;56545;48.224;11.678;2023-02-04T09:41:48;8.13;;;1.80;;
43628;SDS011;56545;48.224;11.678;2023-02-04T09:44:18;7.30;;;1.55;;
43628;SDS011;56545;48.224;11.678;2023-02-04T09:46:47;8.93;;;1.30;;
43628;SDS011;56545;48.224;11.678;2023-02-04T09:49:16;2.97;;;0.60;;
43628;SDS011;56545;48.224;11.678;2023-02-04T09:51:42;2.97;;;0.80;;
43628;SDS011;56545;48.224;11.678;2023-02-04T09:54:27;4.93;;;0.90;;
43628;SDS011;56545;48.224;11.678;2023-02-04T09:56:53;2.33;;;0.60;;
43628;SDS011;56545;48.224;11.678;2023-02-04T09:59:20;0.93;;;0.38;;
43628;SDS011;56545;48.224;11.678;2023-02-04T10:01:48;1.13;;;0.50;;
43628;SDS011;56545;48.224;11.678;2023-02-04T10:04:19;1.58;;;0.50;;
43628;SDS011;56545;48.224;11.678;2023-02-04T10:06:46;1.48;;;0.45;;
43628;SDS011;56545;48.224;11.678;2023-02-04T10:09:13;2.60;;;0.50;;
43628;SDS011;56545;48.224;11.678;2023-02-04T10:11:40;1.88;;;0.40;;
43628;SDS011;56545;48.224;11.678;2023-02-04T10:14:12;2.97;;;0.50;;
43628;SDS011;56545;48.224;11.678;2023-02-04T10:16:41;3.35;;;0.65;;
43628;SDS011;56545;48.224;11.678;2023-02-04T10:19:11;1.45;;;0.57;;
43628;SDS011;56545;48.224;11.678;2023-02-04T10:21:40;3.92;;;0.60;;
43628;SDS011;56545;48.224;11.678;2023-02-04T10:24:12;3.05;;;0.60;;
43628;SDS011;56545;48.224;11.678;2023-02-04T10:26:40;2.00;;;0.57;;
43628;SDS011;56545;48.224;11.678;2023-02-04T10:29:11;4.78;;;1.20;;
43628;SDS011;56545;48.224;11.678;2023-02-04T10:31:40;3.03;;;1.20;;
43628;SDS011;56545;48.224;11.678;2023-02-04T10:36:39;2.42;;;0.80;;
43628;SDS011;56545;48.224;11.678;2023-02-04T10:39:11;1.60;;;0.60;;
43628;SDS011;56545;48.224;11.678;2023-02-04T10:41:45;3.20;;;0.70;;
43628;SDS011;56545;48.224;11.678;2023-02-04T10:44:14;2.70;;;0.77;;
43628;SDS011;56545;48.224;11.678;2023-02-04T10:46:42;1.50;;;0.65;;
43628;SDS011;56545;48.224;11.678;2023-02-04T10:49:18;2.33;;;0.63;;
43628;SDS011;56545;48.224;11.678;2023-02-04T10:51:47;2.17;;;0.70;;
43628;SDS011;56545;48.224;11.678;2023-02-04T10:54:14;3.60;;;0.82;;
43628;SDS011;56545;48.224;11.678;2023-02-04T10:59:23;2.40;;;0.90;;
43628;SDS011;56545;48.224;11.678;2023-02-04T11:01:54;5.53;;;1.90;;
43628;SDS011;56545;48.224;11.678;2023-02-04T11:04:22;1.98;;;0.90;;
43628;SDS011;56545;48.224;11.678;2023-02-04T11:06:49;3.72;;;0.93;;
43628;SDS011;56545;48.224;11.678;2023-02-04T11:09:16;2.90;;;0.80;;
43628;SDS011;56545;48.224;11.678;2023-02-04T11:11:46;3.22;;;1.02;;
43628;SDS011;56545;48.224;11.678;2023-02-04T11:14:26;2.90;;;1.00;;
43628;SDS011;56545;48.224;11.678;2023-02-04T11:16:53;2.55;;;0.70;;
43628;SDS011;56545;48.224;11.678;2023-02-04T11:19:31;5.07;;;1.13;;
43628;SDS011;56545;48.224;11.678;2023-02-04T11:22:06;3.08;;;1.00;;
43628;SDS011;56545;48.224;11.678;2023-02-04T11:24:45;4.45;;;1.20;;
43628;SDS011;56545;48.224;11.678;2023-02-04T11:27:18;4.63;;;1.17;;
43628;SDS011;56545;48.224;11.678;2023-02-04T11:29:46;3.25;;;1.08;;
43628;SDS011;56545;48.224;11.678;2023-02-04T11:32:26;3.90;;;1.27;;
43628;SDS011;56545;48.224;11.678;2023-02-04T11:35:19;4.15;;;1.23;;
43628;SDS011;56545;48.224;11.678;2023-02-04T11:37:55;4.10;;;1.13;;
43628;SDS011;56545;48.224;11.678;2023-02-04T11:40:32;3.60;;;1.10;;
43628;SDS011;56545;48.224;11.678;2023-02-04T11:43:07;3.28;;;1.02;;
43628;SDS011;56545;48.224;11.678;2023-02-04T11:45:36;3.28;;;0.82;;
43628;SDS011;56545;48.224;11.678;2023-02-04T11:48:11;2.55;;;1.00;;
43628;SDS011;56545;48.224;11.678;2023-02-04T11:50:39;4.07;;;1.02;;
43628;SDS011;56545;48.224;11.678;2023-02-04T11:53:07;2.58;;;0.95;;
43628;SDS011;56545;48.224;11.678;2023-02-04T11:55:35;4.78;;;1.00;;
43628;SDS011;56545;48.224;11.678;2023-02-04T11:58:11;3.83;;;1.17;;
43628;SDS011;56545;48.224;11.678;2023-02-04T12:00:40;2.63;;;0.90;;
43628;SDS011;56545;48.224;11.678;2023-02-04T12:03:18;2.05;;;0.90;;
43628;SDS011;56545;48.224;11.678;2023-02-04T12:05:49;2.58;;;1.10;;
43628;SDS011;56545;48.224;11.678;2023-02-04T12:11:01;3.75;;;1.33;;
43628;SDS011;56545;48.224;11.678;2023-02-04T12:13:30;17.00;;;8.45;;
43628;SDS011;56545;48.224;11.678;2023-02-04T12:16:00;3.35;;;1.40;;
43628;SDS011;56545;48.224;11.678;2023-02-04T12:18:30;3.58;;;1.00;;
43628;SDS011;56545;48.224;11.678;2023-02-04T12:20:57;2.40;;;0.95;;
43628;SDS011;56545;48.224;11.678;2023-02-04T12:23:25;3.90;;;1.00;;
43628;SDS011;56545;48.224;11.678;2023-02-04T12:25:52;11.27;;;1.48;;
43628;SDS011;56545;48.224;11.678;2023-02-04T12:28:18;3.28;;;1.20;;
43628;SDS011;56545;48.224;11.678;2023-02-04T12:30:44;1.30;;;0.77;;
43628;SDS011;56545;48.224;11.678;2023-02-04T12:33:10;1.73;;;0.80;;
43628;SDS011;56545;48.224;11.678;2023-02-04T12:35:36;1.73;;;0.63;;
43628;SDS011;56545;48.224;11.678;2023-02-04T12:38:03;4.53;;;0.80;;
43628;SDS011;56545;48.224;11.678;2023-02-04T12:40:29;1.95;;;0.70;;
43628;SDS011;56545;48.224;11.678;2023-02-04T12:42:55;1.92;;;0.70;;
43628;SDS011;56545;48.224;11.678;2023-02-04T12:45:21;1.67;;;0.60;;
43628;SDS011;56545;48.224;11.678;2023-02-04T12:47:47;2.47;;;0.60;;
43628;SDS011;56545;48.224;11.678;2023-02-04T12:50:14;3.03;;;0.80;;
43628;SDS011;56545;48.224;11.678;2023-02-04T12:52:50;1.77;;;0.63;;
43628;SDS011;56545;48.224;11.678;2023-02-04T12:55:17;1.73;;;0.63;;
43628;SDS011;56545;48.224;11.678;2023-02-04T12:57:43;1.17;;;0.68;;
43628;SDS011;56545;48.224;11.678;2023-02-04T13:00:09;2.10;;;0.80;;
43628;SDS011;56545;48.224;11.678;2023-02-04T13:02:37;2.20;;;0.77;;
43628;SDS011;56545;48.224;11.678;2023-02-04T13:05:02;1.58;;;0.63;;
43628;SDS011;56545;48.224;11.678;2023-02-04T13:07:29;1.92;;;0.90;;
43628;SDS011;56545;48.224;11.678;2023-02-04T13:09:55;1.95;;;0.80;;
43628;SDS011;56545;48.224;11.678;2023-02-04T13:12:21;2.22;;;0.60;;
43628;SDS011;56545;48.224;11.678;2023-02-04T13:14:47;2.95;;;0.65;;
43628;SDS011;56545;48.224;11.678;2023-02-04T13:17:13;1.35;;;0.68;;
43628;SDS011;56545;48.224;11.678;2023-02-04T13:19:39;2.65;;;0.70;;
43628;SDS011;56545;48.224;11.678;2023-02-04T13:22:04;1.98;;;0.73;;
43628;SDS011;56545;48.224;11.678;2023-02-04T13:24:30;2.15;;;0.60;;
43628;SDS011;56545;48.224;11.678;2023-02-04T13:26:56;3.13;;;0.63;;
43628;SDS011;56545;48.224;11.678;2023-02-04T13:29:22;2.35;;;0.85;;
43628;SDS011;56545;48.224;11.678;2023-02-04T13:31:48;2.13;;;0.70;;
43628;SDS011;56545;48.224;11.678;2023-02-04T13:34:15;2.28;;;0.70;;
43628;SDS011;56545;48.224;11.678;2023-02-04T13:36:42;3.20;;;0.80;;
43628;SDS011;56545;48.224;11.678;2023-02-04T13:39:09;1.23;;;0.60;;
43628;SDS011;56545;48.224;11.678;2023-02-04T13:41:35;2.53;;;1.00;;
43628;SDS011;56545;48.224;11.678;2023-02-04T13:44:02;1.80;;;0.75;;
43628;SDS011;56545;48.224;11.678;2023-02-04T13:46:28;2.85;;;0.73;;
43628;SDS011;56545;48.224;11.678;2023-02-04T13:48:55;2.08;;;0.70;;
43628;SDS011;56545;48.224;11.678;2023-02-04T13:51:20;2.05;;;0.60;;
43628;SDS011;56545;48.224;11.678;2023-02-04T13:53:47;7.68;;;4.10;;
43628;SDS011;56545;48.224;11.678;2023-02-04T13:56:12;5.13;;;2.38;;
43628;SDS011;56545;48.224;11.678;2023-02-04T13:58:38;2.20;;;0.93;;
43628;SDS011;56545;48.224;11.678;2023-02-04T14:01:08;2.03;;;0.80;;
43628;SDS011;56545;48.224;11.678;2023-02-04T14:03:37;2.22;;;0.60;;
43628;SDS011;56545;48.224;11.678;2023-02-04T14:06:03;1.23;;;0.55;;
43628;SDS011;56545;48.224;11.678;2023-02-04T14:08:29;1.17;;;0.40;;
43628;SDS011;56545;48.224;11.678;2023-02-04T14:10:56;1.40;;;0.60;;
43628;SDS011;56545;48.224;11.678;2023-02-04T14:13:22;1.95;;;0.60;;
43628;SDS011;56545;48.224;11.678;2023-02-04T14:15:48;1.83;;;0.80;;
43628;SDS011;56545;48.224;11.678;2023-02-04T14:18:14;1.67;;;0.60;;
43628;SDS011;56545;48.224;11.678;2023-02-04T14:20:40;2.70;;;0.90;;
43628;SDS011;56545;48.224;11.678;2023-02-04T14:23:06;2.03;;;0.68;;
43628;SDS011;56545;48.224;11.678;2023-02-04T14:25:32;2.00;;;0.68;;
43628;SDS011;56545;48.224;11.678;2023-02-04T14:27:58;2.05;;;0.90;;
43628;SDS011;56545;48.224;11.678;2023-02-04T14:30:26;1.52;;;0.70;;
43628;SDS011;56545;48.224;11.678;2023-02-04T14:32:53;2.30;;;0.82;;
43628;SDS011;56545;48.224;11.678;2023-02-04T14:35:20;1.10;;;0.60;;
43628;SDS011;56545;48.224;11.678;2023-02-04T14:37:46;2.13;;;0.80;;